sensor_id;sensor_type;location;lat;lon;timestamp;P1;durP1;ratioP1;P2;durP2;ratioP2
32535;SDS011;18974;50.838;4.636;2022-07-23T16:41:05;3.97;;;3.63;;
32535;SDS011;18974;50.838;4.636;2022-07-23T16:43:35;4.45;;;3.75;;
32535;SDS011;18974;50.838;4.636;2022-07-23T16:46:01;5.03;;;3.63;;
32535;SDS011;18974;50.838;4.636;2022-07-23T16:48:27;5.53;;;3.63;;
32535;SDS011;18974;50.838;4.636;2022-07-23T16:50:52;5.13;;;3.65;;
32535;SDS011;18974;50.838;4.636;2022-07-23T16:53:18;11.18;;;3.47;;
32535;SDS011;18974;50.838;4.636;2022-07-23T16:55:44;3.78;;;2.95;;
32535;SDS011;18974;50.838;4.636;2022-07-23T16:58:09;6.53;;;3.50;;
32535;SDS011;18974;50.838;4.636;2022-07-23T17:00:35;3.78;;;3.28;;
32535;SDS011;18974;50.838;4.636;2022-07-23T17:03:01;4.32;;;3.58;;
32535;SDS011;18974;50.838;4.636;2022-07-23T17:05:27;6.57;;;4.93;;
32535;SDS011;18974;50.838;4.636;2022-07-23T17:07:53;4.55;;;3.50;;
32535;SDS011;18974;50.838;4.636;2022-07-23T17:10:19;4.13;;;3.70;;
32535;SDS011;18974;50.838;4.636;2022-07-23T17:12:45;4.53;;;3.38;;
32535;SDS011;18974;50.838;4.636;2022-07-23T17:15:12;7.47;;;3.50;;
32535;SDS011;18974;50.838;4.636;2022-07-23T17:17:38;3.78;;;3.35;;
32535;SDS011;18974;50.838;4.636;2022-07-23T17:20:04;3.28;;;2.67;;
32535;SDS011;18974;50.838;4.636;2022-07-23T17:22:32;4.97;;;3.72;;
32535;SDS011;18974;50.838;4.636;2022-07-23T17:24:58;5.32;;;3.03;;
32535;SDS011;18974;50.838;4.636;2022-07-23T17:27:24;4.40;;;3.42;;
32535;SDS011;18974;50.838;4.636;2022-07-23T17:29:50;4.70;;;3.05;;
32535;SDS011;18974;50.838;4.636;2022-07-23T17:32:17;6.18;;;3.78;;
32535;SDS011;18974;50.838;4.636;2022-07-23T17:34:43;6.35;;;3.55;;
32535;SDS011;18974;50.838;4.636;2022-07-23T17:37:09;9.30;;;3.95;;
32535;SDS011;18974;50.838;4.636;2022-07-23T17:39:35;3.90;;;3.10;;
32535;SDS011;18974;50.838;4.636;2022-07-23T17:42:00;4.65;;;3.70;;
32535;SDS011;18974;50.838;4.636;2022-07-23T17:44:26;7.15;;;3.83;;
32535;SDS011;18974;50.838;4.636;2022-07-23T17:46:52;3.80;;;3.08;;
32535;SDS011;18974;50.838;4.636;2022-07-23T17:49:17;4.53;;;3.67;;
32535;SDS011;18974;50.838;4.636;2022-07-23T17:51:43;4.03;;;3.25;;
32535;SDS011;18974;50.838;4.636;2022-07-23T17:54:10;4.55;;;3.13;;
32535;SDS011;18974;50.838;4.636;2022-07-23T17:56:36;5.80;;;3.58;;
32535;SDS011;18974;50.838;4.636;2022-07-23T17:59:02;3.90;;;3.28;;
32535;SDS011;18974;50.838;4.636;2022-07-23T18:01:28;5.70;;;3.10;;
32535;SDS011;18974;50.838;4.636;2022-07-23T18:03:54;6.95;;;4.15;;
32535;SDS011;18974;50.838;4.636;2022-07-23T18:06:19;4.60;;;3.17;;
32535;SDS011;18974;50.838;4.636;2022-07-23T18:08:45;5.20;;;3.30;;
32535;SDS011;18974;50.838;4.636;2022-07-23T18:11:11;5.03;;;3.35;;
32535;SDS011;18974;50.838;4.636;2022-07-23T18:13:37;4.30;;;3.00;;
32535;SDS011;18974;50.838;4.636;2022-07-23T18:16:03;4.88;;;3.20;;
32535;SDS011;18974;50.838;4.636;2022-07-23T18:18:29;5.88;;;3.63;;
32535;SDS011;18974;50.838;4.636;2022-07-23T18:20:54;4.15;;;3.45;;
32535;SDS011;18974;50.838;4.636;2022-07-23T18:23:21;5.68;;;3.45;;
32535;SDS011;18974;50.838;4.636;2022-07-23T18:25:47;4.53;;;3.10;;
32535;SDS011;18974;50.838;4.636;2022-07-23T18:28:13;6.40;;;3.00;;
32535;SDS011;18974;50.838;4.636;2022-07-23T18:30:39;10.85;;;3.28;;
32535;SDS011;18974;50.838;4.636;2022-07-23T18:33:05;4.35;;;3.17;;
32535;SDS011;18974;50.838;4.636;2022-07-23T18:35:31;3.47;;;2.90;;
32535;SDS011;18974;50.838;4.636;2022-07-23T18:37:56;3.65;;;2.80;;
32535;SDS011;18974;50.838;4.636;2022-07-23T18:40:22;5.47;;;2.95;;
32535;SDS011;18974;50.838;4.636;2022-07-23T18:42:48;4.05;;;3.20;;
32535;SDS011;18974;50.838;4.636;2022-07-23T18:45:14;5.68;;;3.25;;
32535;SDS011;18974;50.838;4.636;2022-07-23T18:47:40;4.80;;;3.40;;
32535;SDS011;18974;50.838;4.636;2022-07-23T18:50:06;4.03;;;3.35;;
32535;SDS011;18974;50.838;4.636;2022-07-23T18:52:34;8.68;;;3.25;;
32535;SDS011;18974;50.838;4.636;2022-07-23T18:55:00;4.60;;;3.42;;
32535;SDS011;18974;50.838;4.636;2022-07-23T18:57:26;4.03;;;3.25;;
32535;SDS011;18974;50.838;4.636;2022-07-23T18:59:51;5.82;;;3.25;;
32535;SDS011;18974;50.838;4.636;2022-07-23T19:02:17;5.13;;;2.90;;
32535;SDS011;18974;50.838;4.636;2022-07-23T19:04:43;4.45;;;3.10;;
32535;SDS011;18974;50.838;4.636;2022-07-23T19:07:09;4.35;;;3.25;;
32535;SDS011;18974;50.838;4.636;2022-07-23T19:09:34;3.67;;;2.80;;
32535;SDS011;18974;50.838;4.636;2022-07-23T19:12:00;7.03;;;3.13;;
32535;SDS011;18974;50.838;4.636;2022-07-23T19:14:27;5.68;;;3.33;;
32535;SDS011;18974;50.838;4.636;2022-07-23T19:16:53;4.38;;;3.30;;
32535;SDS011;18974;50.838;4.636;2022-07-23T19:19:19;4.70;;;3.40;;
32535;SDS011;18974;50.838;4.636;2022-07-23T19:21:45;4.35;;;3.40;;
32535;SDS011;18974;50.838;4.636;2022-07-23T19:24:10;4.43;;;3.45;;
32535;SDS011;18974;50.838;4.636;2022-07-23T19:26:36;5.95;;;3.10;;
32535;SDS011;18974;50.838;4.636;2022-07-23T19:29:02;4.72;;;3.10;;
32535;SDS011;18974;50.838;4.636;2022-07-23T19:31:28;4.68;;;3.72;;
32535;SDS011;18974;50.838;4.636;2022-07-23T19:33:54;4.63;;;3.20;;
32535;SDS011;18974;50.838;4.636;2022-07-23T19:36:19;4.32;;;3.20;;
32535;SDS011;18974;50.838;4.636;2022-07-23T19:38:45;5.18;;;3.72;;
32535;SDS011;18974;50.838;4.636;2022-07-23T19:41:11;4.60;;;3.40;;
32535;SDS011;18974;50.838;4.636;2022-07-23T19:43:37;7.97;;;4.03;;
32535;SDS011;18974;50.838;4.636;2022-07-23T19:46:03;4.93;;;3.63;;
32535;SDS011;18974;50.838;4.636;2022-07-23T19:48:28;3.95;;;3.53;;
32535;SDS011;18974;50.838;4.636;2022-07-23T19:50:55;5.22;;;3.80;;
32535;SDS011;18974;50.838;4.636;2022-07-23T19:53:21;5.05;;;3.72;;
32535;SDS011;18974;50.838;4.636;2022-07-23T19:55:47;6.10;;;4.25;;
32535;SDS011;18974;50.838;4.636;2022-07-23T19:58:12;7.07;;;3.83;;
32535;SDS011;18974;50.838;4.636;2022-07-23T20:00:39;6.07;;;4.25;;
32535;SDS011;18974;50.838;4.636;2022-07-23T20:03:05;5.53;;;3.95;;
32535;SDS011;18974;50.838;4.636;2022-07-23T20:05:31;4.22;;;3.83;;
32535;SDS011;18974;50.838;4.636;2022-07-23T20:07:57;4.38;;;3.90;;
32535;SDS011;18974;50.838;4.636;2022-07-23T20:10:22;4.93;;;3.95;;
32535;SDS011;18974;50.838;4.636;2022-07-23T20:12:48;6.80;;;4.40;;
32535;SDS011;18974;50.838;4.636;2022-07-23T20:15:17;5.35;;;4.32;;
32535;SDS011;18974;50.838;4.636;2022-07-23T20:17:42;7.47;;;4.60;;
32535;SDS011;18974;50.838;4.636;2022-07-23T20:20:08;6.07;;;4.32;;
32535;SDS011;18974;50.838;4.636;2022-07-23T20:22:34;7.70;;;4.75;;
32535;SDS011;18974;50.838;4.636;2022-07-23T20:25:01;8.90;;;5.63;;
32535;SDS011;18974;50.838;4.636;2022-07-23T20:27:27;6.55;;;4.68;;
32535;SDS011;18974;50.838;4.636;2022-07-23T20:29:53;6.13;;;4.72;;
32535;SDS011;18974;50.838;4.636;2022-07-23T20:32:18;7.72;;;5.35;;
32535;SDS011;18974;50.838;4.636;2022-07-23T20:34:44;7.00;;;5.43;;
32535;SDS011;18974;50.838;4.636;2022-07-23T20:37:09;7.80;;;5.03;;
32535;SDS011;18974;50.838;4.636;2022-07-23T20:39:36;11.65;;;5.10;;
32535;SDS011;18974;50.838;4.636;2022-07-23T20:42:02;7.47;;;5.50;;
32535;SDS011;18974;50.838;4.636;2022-07-23T20:44:27;9.55;;;5.25;;
32535;SDS011;18974;50.838;4.636;2022-07-23T20:46:53;6.63;;;5.38;;
32535;SDS011;18974;50.838;4.636;2022-07-23T20:49:19;9.48;;;5.53;;
32535;SDS011;18974;50.838;4.636;2022-07-23T20:51:45;9.88;;;6.20;;
32535;SDS011;18974;50.838;4.636;2022-07-23T20:54:11;7.95;;;6.10;;
32535;SDS011;18974;50.838;4.636;2022-07-23T20:56:36;8.23;;;6.05;;
32535;SDS011;18974;50.838;4.636;2022-07-23T20:59:02;7.05;;;5.63;;
32535;SDS011;18974;50.838;4.636;2022-07-23T21:01:28;8.32;;;6.05;;
32535;SDS011;18974;50.838;4.636;2022-07-23T21:03:54;7.50;;;5.32;;
32535;SDS011;18974;50.838;4.636;2022-07-23T21:06:19;8.20;;;5.95;;
32535;SDS011;18974;50.838;4.636;2022-07-23T21:08:45;10.18;;;5.50;;
32535;SDS011;18974;50.838;4.636;2022-07-23T21:11:11;10.18;;;6.03;;
32535;SDS011;18974;50.838;4.636;2022-07-23T21:13:36;9.25;;;5.60;;
32535;SDS011;18974;50.838;4.636;2022-07-23T21:16:02;11.05;;;6.00;;
32535;SDS011;18974;50.838;4.636;2022-07-23T21:18:29;13.55;;;6.30;;
32535;SDS011;18974;50.838;4.636;2022-07-23T21:20:54;6.72;;;5.53;;
32535;SDS011;18974;50.838;4.636;2022-07-23T21:23:41;7.78;;;5.80;;
32535;SDS011;18974;50.838;4.636;2022-07-23T21:26:12;8.52;;;6.07;;
32535;SDS011;18974;50.838;4.636;2022-07-23T21:28:40;9.75;;;6.35;;
32535;SDS011;18974;50.838;4.636;2022-07-23T21:31:06;7.15;;;5.13;;
32535;SDS011;18974;50.838;4.636;2022-07-23T21:33:32;7.25;;;5.63;;
32535;SDS011;18974;50.838;4.636;2022-07-23T21:35:58;7.65;;;5.88;;
32535;SDS011;18974;50.838;4.636;2022-07-23T21:38:24;7.40;;;5.22;;
32535;SDS011;18974;50.838;4.636;2022-07-23T21:40:50;8.23;;;5.60;;
32535;SDS011;18974;50.838;4.636;2022-07-23T21:43:17;6.88;;;5.72;;
32535;SDS011;18974;50.838;4.636;2022-07-23T21:45:43;9.50;;;6.38;;
32535;SDS011;18974;50.838;4.636;2022-07-23T21:48:09;8.90;;;5.40;;
32535;SDS011;18974;50.838;4.636;2022-07-23T21:50:35;8.30;;;6.13;;
32535;SDS011;18974;50.838;4.636;2022-07-23T21:53:00;7.68;;;5.75;;
32535;SDS011;18974;50.838;4.636;2022-07-23T21:55:26;10.50;;;5.88;;
32535;SDS011;18974;50.838;4.636;2022-07-23T21:57:53;7.95;;;5.30;;
32535;SDS011;18974;50.838;4.636;2022-07-23T22:00:20;6.75;;;6.00;;
32535;SDS011;18974;50.838;4.636;2022-07-23T22:02:50;7.47;;;5.75;;
32535;SDS011;18974;50.838;4.636;2022-07-23T22:05:16;10.38;;;5.50;;
32535;SDS011;18974;50.838;4.636;2022-07-23T22:07:42;6.15;;;5.28;;
32535;SDS011;18974;50.838;4.636;2022-07-23T22:10:08;9.68;;;5.70;;
32535;SDS011;18974;50.838;4.636;2022-07-23T22:12:36;8.05;;;5.78;;
32535;SDS011;18974;50.838;4.636;2022-07-23T22:15:02;6.57;;;5.55;;
32535;SDS011;18974;50.838;4.636;2022-07-23T22:17:29;10.32;;;5.57;;
32535;SDS011;18974;50.838;4.636;2022-07-23T22:19:55;5.50;;;4.78;;
32535;SDS011;18974;50.838;4.636;2022-07-23T22:22:20;10.52;;;5.53;;
32535;SDS011;18974;50.838;4.636;2022-07-23T22:24:46;7.22;;;4.97;;
32535;SDS011;18974;50.838;4.636;2022-07-23T22:27:11;6.45;;;5.70;;
32535;SDS011;18974;50.838;4.636;2022-07-23T22:29:37;7.90;;;5.40;;
32535;SDS011;18974;50.838;4.636;2022-07-23T22:32:03;5.95;;;5.18;;
32535;SDS011;18974;50.838;4.636;2022-07-23T22:34:29;6.28;;;4.82;;
32535;SDS011;18974;50.838;4.636;2022-07-23T22:36:54;6.32;;;5.15;;
32535;SDS011;18974;50.838;4.636;2022-07-23T22:39:20;5.60;;;4.85;;
32535;SDS011;18974;50.838;4.636;2022-07-23T22:41:46;6.18;;;5.07;;
32535;SDS011;18974;50.838;4.636;2022-07-23T22:44:11;6.80;;;5.20;;
32535;SDS011;18974;50.838;4.636;2022-07-23T22:46:37;7.60;;;5.03;;
32535;SDS011;18974;50.838;4.636;2022-07-23T22:49:03;7.93;;;5.55;;
32535;SDS011;18974;50.838;4.636;2022-07-23T22:51:28;6.57;;;5.60;;
32535;SDS011;18974;50.838;4.636;2022-07-23T22:53:54;9.32;;;5.95;;
32535;SDS011;18974;50.838;4.636;2022-07-23T22:56:20;7.57;;;5.63;;
32535;SDS011;18974;50.838;4.636;2022-07-23T22:58:46;7.45;;;5.93;;
32535;SDS011;18974;50.838;4.636;2022-07-23T23:01:12;11.75;;;7.00;;
32535;SDS011;18974;50.838;4.636;2022-07-23T23:03:37;10.43;;;7.38;;
32535;SDS011;18974;50.838;4.636;2022-07-23T23:06:03;11.90;;;7.75;;
32535;SDS011;18974;50.838;4.636;2022-07-23T23:08:29;11.00;;;7.82;;
32535;SDS011;18974;50.838;4.636;2022-07-23T23:10:54;10.60;;;7.97;;
32535;SDS011;18974;50.838;4.636;2022-07-23T23:13:20;12.60;;;8.43;;
32535;SDS011;18974;50.838;4.636;2022-07-23T23:15:45;10.98;;;8.57;;
32535;SDS011;18974;50.838;4.636;2022-07-23T23:18:11;10.45;;;8.57;;
32535;SDS011;18974;50.838;4.636;2022-07-23T23:20:37;12.65;;;8.38;;
32535;SDS011;18974;50.838;4.636;2022-07-23T23:23:02;10.43;;;7.80;;
32535;SDS011;18974;50.838;4.636;2022-07-23T23:25:28;11.43;;;8.93;;
32535;SDS011;18974;50.838;4.636;2022-07-23T23:27:55;15.07;;;11.00;;
32535;SDS011;18974;50.838;4.636;2022-07-23T23:30:20;14.00;;;11.77;;
32535;SDS011;18974;50.838;4.636;2022-07-23T23:32:46;15.70;;;11.00;;
32535;SDS011;18974;50.838;4.636;2022-07-23T23:35:12;18.88;;;14.10;;
32535;SDS011;18974;50.838;4.636;2022-07-23T23:37:37;21.15;;;13.73;;
32535;SDS011;18974;50.838;4.636;2022-07-23T23:40:03;17.52;;;11.23;;
32535;SDS011;18974;50.838;4.636;2022-07-23T23:42:29;15.82;;;11.52;;
32535;SDS011;18974;50.838;4.636;2022-07-23T23:44:55;15.77;;;11.45;;
32535;SDS011;18974;50.838;4.636;2022-07-23T23:47:20;17.35;;;11.93;;
32535;SDS011;18974;50.838;4.636;2022-07-23T23:49:46;18.63;;;11.48;;
32535;SDS011;18974;50.838;4.636;2022-07-23T23:52:12;13.07;;;9.75;;
32535;SDS011;18974;50.838;4.636;2022-07-23T23:54:37;16.33;;;11.60;;
32535;SDS011;18974;50.838;4.636;2022-07-23T23:57:03;16.08;;;12.05;;
32535;SDS011;18974;50.838;4.636;2022-07-23T23:59:29;13.63;;;10.45;;
